createdAt,value
2018-04-01T08:02:26.709Z,99.99
2018-04-01T08:02:39.341Z,99.99
2018-04-01T08:02:51.978Z,99.99
2018-04-01T08:03:04.614Z,99.99
2018-04-01T08:03:17.199Z,99.99
2018-04-01T08:03:29.790Z,99.99
2018-04-01T08:03:42.373Z,99.99
2018-04-01T08:03:55.008Z,99.99
2018-04-01T08:04:07.622Z,99.99
2018-04-01T08:04:20.388Z,99.99
2018-04-01T08:04:32.989Z,99.99
2018-04-01T08:04:45.620Z,99.99
2018-04-01T08:04:58.208Z,99.99
2018-04-01T08:05:10.798Z,99.99
2018-04-01T08:05:23.392Z,99.99
2018-04-01T08:05:36.001Z,99.99
2018-04-01T08:05:48.589Z,99.99
2018-04-01T08:06:01.199Z,99.99
2018-04-01T08:06:13.786Z,99.99
2018-04-01T08:06:26.375Z,99.99
2018-04-01T08:06:38.993Z,99.99
2018-04-01T08:06:51.605Z,99.99
2018-04-01T08:07:04.197Z,99.99
2018-04-01T08:07:16.806Z,99.99
2018-04-01T08:07:29.394Z,99.99
2018-04-01T08:07:41.986Z,99.99
2018-04-01T08:07:54.601Z,99.99
2018-04-01T08:08:07.256Z,99.99
2018-04-01T08:08:19.819Z,99.99
2018-04-01T08:08:32.432Z,99.99
2018-04-01T08:08:45.023Z,99.99
2018-04-01T08:08:57.633Z,99.99
2018-04-01T08:09:10.238Z,99.99
2018-04-01T08:09:22.854Z,99.99
2018-04-01T08:09:35.437Z,99.99
2018-04-01T08:09:48.048Z,99.99
2018-04-01T08:10:00.709Z,99.99
2018-04-01T08:10:13.302Z,99.99
2018-04-01T08:10:25.891Z,99.99
2018-04-01T08:10:38.503Z,99.99
2018-04-01T08:10:51.095Z,99.99
2018-04-01T08:11:03.674Z,99.99
2018-04-01T08:11:16.270Z,99.99
2018-04-01T08:11:28.883Z,99.99
2018-04-01T08:11:41.522Z,99.99
2018-04-01T08:11:54.135Z,99.99
2018-04-01T08:12:06.749Z,99.99
2018-04-01T08:12:19.342Z,99.99
2018-04-01T08:12:31.933Z,99.99
2018-04-01T08:12:44.521Z,99.99
2018-04-01T08:12:57.111Z,99.99
2018-04-01T08:13:09.703Z,99.99
2018-04-01T08:13:22.293Z,99.99
2018-04-01T08:13:34.881Z,99.99
2018-04-01T08:13:47.475Z,99.99
2018-04-01T08:14:00.085Z,99.99
2018-04-01T08:14:12.678Z,99.99
2018-04-01T08:14:25.287Z,99.99
2018-04-01T08:14:37.880Z,99.99
2018-04-01T08:14:50.507Z,99.99
2018-04-01T08:15:03.220Z,99.99
2018-04-01T08:15:15.834Z,99.99
2018-04-01T08:15:28.434Z,99.99
2018-04-01T08:15:41.101Z,99.99
2018-04-01T08:15:53.707Z,99.99
2018-04-01T08:16:06.313Z,99.99
2018-04-01T08:16:18.926Z,99.99
2018-04-01T08:16:31.510Z,99.99
2018-04-01T08:16:44.108Z,99.99
2018-04-01T08:16:56.718Z,99.99
2018-04-01T08:17:09.308Z,99.99
2018-04-01T08:17:21.896Z,99.99
2018-04-01T08:17:34.489Z,99.99
2018-04-01T08:17:47.109Z,99.99
2018-04-01T08:17:59.725Z,99.99
2018-04-01T08:18:12.308Z,99.99
2018-04-01T08:18:24.908Z,99.99
2018-04-01T08:18:37.526Z,99.99
2018-04-01T08:18:50.114Z,99.99
2018-04-01T08:19:02.733Z,99.99
2018-04-01T08:19:15.341Z,99.99
2018-04-01T08:19:27.992Z,99.99
2018-04-01T08:19:40.569Z,99.99
2018-04-01T08:19:53.152Z,99.99
2018-04-01T08:20:05.745Z,99.99
2018-04-01T08:20:18.365Z,99.99
2018-04-01T08:20:30.969Z,99.99
2018-04-01T08:20:43.560Z,99.99
2018-04-01T08:20:56.150Z,99.99
2018-04-01T08:21:08.741Z,99.99
2018-04-01T08:21:21.332Z,99.99
2018-04-01T08:21:33.951Z,99.99
2018-04-01T08:21:46.520Z,99.99
2018-04-01T08:21:59.107Z,99.99
2018-04-01T08:22:11.696Z,99.99
2018-04-01T08:22:24.289Z,99.99
2018-04-01T08:22:36.901Z,99.99
2018-04-01T08:22:49.492Z,99.99
2018-04-01T08:23:02.086Z,99.99
2018-04-01T08:23:14.700Z,99.99
2018-04-01T08:23:27.325Z,99.99
2018-04-01T08:23:39.881Z,99.99
2018-04-01T08:23:52.496Z,99.99
2018-04-01T08:24:05.087Z,99.99
2018-04-01T08:24:17.701Z,99.99
2018-04-01T08:24:30.298Z,99.99
2018-04-01T08:24:42.909Z,99.99
2018-04-01T08:24:55.498Z,99.99
2018-04-01T08:25:08.087Z,99.99
2018-04-01T08:25:20.678Z,99.99
2018-04-01T08:25:33.274Z,99.99
2018-04-01T08:25:45.866Z,99.99
2018-04-01T08:25:58.475Z,99.99
2018-04-01T08:26:11.068Z,99.99
2018-04-01T08:26:23.710Z,99.99
2018-04-01T08:26:36.346Z,99.99
2018-04-01T08:26:48.999Z,99.99
2018-04-01T08:27:01.641Z,99.99
2018-04-01T08:27:14.258Z,99.99
2018-04-01T08:27:26.946Z,99.99
2018-04-01T08:27:39.514Z,99.99
2018-04-01T08:27:52.102Z,99.99
2018-04-01T08:28:04.694Z,99.99
2018-04-01T08:28:17.285Z,99.99
2018-04-01T08:28:29.906Z,99.99
2018-04-01T08:28:42.530Z,99.99
2018-04-01T08:28:55.119Z,99.99
2018-04-01T08:29:07.710Z,99.99
2018-04-01T08:29:20.304Z,99.99
2018-04-01T08:29:32.918Z,99.99
2018-04-01T08:29:45.529Z,99.99
2018-04-01T08:29:58.120Z,99.99
2018-04-01T08:30:10.708Z,99.99
2018-04-01T08:30:23.303Z,99.99
2018-04-01T08:30:35.893Z,99.99
2018-04-01T08:30:48.488Z,99.99
2018-04-01T08:31:01.081Z,99.99
2018-04-01T08:31:13.672Z,99.99
2018-04-01T08:31:26.262Z,99.99
2018-04-01T08:31:38.847Z,99.99
2018-04-01T08:31:51.434Z,99.99
2018-04-01T08:32:04.052Z,99.99
2018-04-01T08:32:16.655Z,99.99
2018-04-01T08:32:29.244Z,99.99
2018-04-01T08:32:41.833Z,99.99
2018-04-01T08:32:54.425Z,99.99
2018-04-01T08:33:07.036Z,99.90
2018-04-01T08:33:19.630Z,99.81
2018-04-01T08:33:32.242Z,99.81
2018-04-01T08:33:44.834Z,99.90
2018-04-01T08:33:57.445Z,99.81
2018-04-01T08:34:10.039Z,99.90
2018-04-01T08:34:22.654Z,99.99
2018-04-01T08:34:35.245Z,99.99
2018-04-01T08:34:47.853Z,99.52
2018-04-01T08:35:00.447Z,99.43
2018-04-01T08:35:13.052Z,99.52
2018-04-01T08:35:25.649Z,99.71
2018-04-01T08:35:38.263Z,99.62
2018-04-01T08:35:50.900Z,99.99
2018-04-01T08:36:03.479Z,99.52
2018-04-01T08:36:16.075Z,99.99
2018-04-01T08:36:28.666Z,99.99
2018-04-01T08:36:41.261Z,99.99
2018-04-01T08:36:53.852Z,99.90
2018-04-01T08:37:06.442Z,99.90
2018-04-01T08:37:19.034Z,99.90
2018-04-01T08:37:31.630Z,99.62
2018-04-01T08:37:44.274Z,99.81
2018-04-01T08:37:56.883Z,99.99
2018-04-01T08:38:09.476Z,99.99
2018-04-01T08:38:22.093Z,99.99
2018-04-01T08:38:34.688Z,99.99
2018-04-01T08:38:47.300Z,99.99
2018-04-01T08:38:59.890Z,99.99
2018-04-01T08:39:12.483Z,99.99
2018-04-01T08:39:25.076Z,99.99
2018-04-01T08:39:37.694Z,99.99
2018-04-01T08:39:50.284Z,99.90
2018-04-01T08:40:02.907Z,99.99
2018-04-01T08:40:15.501Z,99.71
2018-04-01T08:40:28.116Z,99.81
2018-04-01T08:40:40.747Z,99.99
2018-04-01T08:40:53.365Z,99.99
2018-04-01T08:41:05.960Z,99.99
2018-04-01T08:41:18.580Z,99.24
2018-04-01T08:41:31.167Z,99.43
2018-04-01T08:41:43.759Z,99.33
2018-04-01T08:41:56.374Z,99.33
2018-04-01T08:42:08.965Z,99.99
2018-04-01T08:42:21.559Z,99.99
2018-04-01T08:42:34.168Z,99.90
2018-04-01T08:42:46.765Z,99.81
2018-04-01T08:42:59.357Z,99.52
2018-04-01T08:43:11.942Z,99.71
2018-04-01T08:43:24.533Z,99.90
2018-04-01T08:43:37.126Z,99.90
2018-04-01T08:43:49.720Z,99.71
2018-04-01T08:44:02.380Z,99.43
2018-04-01T08:44:14.968Z,99.81
2018-04-01T08:44:27.562Z,99.90
2018-04-01T08:44:40.176Z,99.90
2018-04-01T08:44:52.793Z,99.90
2018-04-01T08:45:05.406Z,99.99
2018-04-01T08:45:17.996Z,99.90
2018-04-01T08:45:30.582Z,99.52
2018-04-01T08:45:43.188Z,99.81
2018-04-01T08:45:55.802Z,99.81
2018-04-01T08:46:08.396Z,99.99
2018-04-01T08:46:21.032Z,99.99
2018-04-01T08:46:33.627Z,99.99
2018-04-01T08:46:46.221Z,99.99
2018-04-01T08:46:58.854Z,99.99
2018-04-01T08:47:11.462Z,99.99
2018-04-01T08:47:24.068Z,99.99
2018-04-01T08:47:36.721Z,99.99
2018-04-01T08:47:49.311Z,99.99
2018-04-01T08:48:01.900Z,99.99
2018-04-01T08:48:14.548Z,99.99
2018-04-01T08:48:27.086Z,99.99
2018-04-01T08:48:39.707Z,99.90
2018-04-01T08:48:52.367Z,99.81
2018-04-01T08:49:04.959Z,99.71
2018-04-01T08:49:17.575Z,99.33
2018-04-01T08:49:30.164Z,98.96
2018-04-01T08:49:42.752Z,99.62
2018-04-01T08:49:55.366Z,99.52
2018-04-01T08:50:07.960Z,99.15
2018-04-01T08:50:20.578Z,98.77
2018-04-01T08:50:33.163Z,99.15
2018-04-01T08:50:45.748Z,98.96
2018-04-01T08:50:58.337Z,98.96
2018-04-01T08:51:10.925Z,98.96
2018-04-01T08:51:23.519Z,99.05
2018-04-01T08:51:36.103Z,98.96
2018-04-01T08:51:48.697Z,98.96
2018-04-01T08:52:01.340Z,98.77
2018-04-01T08:52:13.914Z,98.86
2018-04-01T08:52:26.502Z,99.05
2018-04-01T08:52:39.098Z,99.05
2018-04-01T08:52:51.708Z,99.05
2018-04-01T08:53:04.354Z,99.24
2018-04-01T08:53:17.022Z,99.15
2018-04-01T08:53:29.560Z,99.71
2018-04-01T08:53:42.151Z,99.62
2018-04-01T08:53:54.742Z,99.62
2018-04-01T08:54:07.380Z,99.05
2018-04-01T08:54:19.978Z,98.86
2018-04-01T08:54:32.562Z,98.96
2018-04-01T08:54:45.176Z,99.15
2018-04-01T08:54:57.784Z,98.91
2018-04-01T08:55:10.379Z,99.05
2018-04-01T08:55:22.970Z,98.35
2018-04-01T08:55:35.564Z,98.63
2018-04-01T08:55:48.179Z,98.63
2018-04-01T08:56:00.762Z,97.82
2018-04-01T08:56:13.355Z,98.25
2018-04-01T08:56:25.950Z,98.44
2018-04-01T08:56:38.562Z,97.97
2018-04-01T08:56:51.535Z,97.97
2018-04-01T08:57:04.106Z,97.40
2018-04-01T08:57:16.686Z,97.49
2018-04-01T08:57:29.279Z,97.54
2018-04-01T08:57:41.874Z,97.59
2018-04-01T08:57:54.459Z,96.73
2018-04-01T08:58:07.054Z,97.11
2018-04-01T08:58:19.642Z,97.02
2018-04-01T08:58:32.241Z,97.11
2018-04-01T08:58:44.835Z,97.02
2018-04-01T08:58:57.442Z,97.06
2018-04-01T08:59:10.024Z,96.78
2018-04-01T08:59:22.796Z,97.44
2018-04-01T08:59:35.351Z,97.54
2018-04-01T08:59:47.978Z,97.35
2018-04-01T09:00:00.559Z,98.01
2018-04-01T09:00:13.150Z,97.73
2018-04-01T09:00:25.770Z,97.54
2018-04-01T09:00:38.360Z,97.92
2018-04-01T09:00:50.957Z,97.78
2018-04-01T09:01:03.545Z,97.49
2018-04-01T09:01:16.137Z,97.44
2018-04-01T09:01:28.731Z,97.16
2018-04-01T09:01:41.380Z,97.16
2018-04-01T09:01:54.001Z,96.69
2018-04-01T09:02:06.615Z,96.78
2018-04-01T09:02:19.205Z,96.97
2018-04-01T09:02:31.796Z,96.78
2018-04-01T09:02:44.392Z,96.59
2018-04-01T09:02:56.982Z,96.83
2018-04-01T09:03:09.576Z,97.06
2018-04-01T09:03:22.176Z,97.16
2018-04-01T09:03:34.758Z,97.16
2018-04-01T09:03:47.347Z,96.97
2018-04-01T09:03:59.974Z,97.16
2018-04-01T09:04:12.595Z,96.87
2018-04-01T09:04:25.228Z,96.69
2018-04-01T09:04:37.823Z,97.63
2018-04-01T09:04:50.433Z,97.35
2018-04-01T09:05:03.057Z,97.54
2018-04-01T09:05:15.654Z,97.63
2018-04-01T09:05:28.332Z,96.87
2018-04-01T09:05:40.907Z,96.97
2018-04-01T09:05:53.499Z,96.87
2018-04-01T09:06:06.093Z,97.16
2018-04-01T09:06:18.729Z,96.59
2018-04-01T09:06:31.715Z,96.78
2018-04-01T09:06:44.276Z,96.87
2018-04-01T09:06:56.861Z,96.21
2018-04-01T09:07:09.448Z,96.59
2018-04-01T09:07:22.041Z,96.59
2018-04-01T09:07:34.625Z,96.31
2018-04-01T09:07:47.218Z,96.31
2018-04-01T09:07:59.829Z,96.87
2018-04-01T09:08:12.417Z,96.59
2018-04-01T09:08:25.009Z,97.16
2018-04-01T09:08:37.599Z,97.16
2018-04-01T09:08:50.266Z,97.16
2018-04-01T09:09:02.838Z,97.16
2018-04-01T09:09:15.442Z,96.87
2018-04-01T09:09:28.033Z,96.87
2018-04-01T09:09:40.653Z,96.87
2018-04-01T09:09:53.291Z,96.87
2018-04-01T09:10:05.879Z,96.97
2018-04-01T09:10:18.471Z,97.02
2018-04-01T09:10:31.113Z,97.21
2018-04-01T09:10:43.652Z,97.21
2018-04-01T09:10:56.263Z,97.11
2018-04-01T09:11:08.846Z,97.02
2018-04-01T09:11:21.460Z,96.83
2018-04-01T09:11:34.077Z,96.36
2018-04-01T09:11:46.667Z,96.83
2018-04-01T09:11:59.306Z,96.17
2018-04-01T09:12:11.901Z,96.45
2018-04-01T09:12:24.490Z,96.17
2018-04-01T09:12:37.132Z,96.55
2018-04-01T09:12:49.720Z,96.55
2018-04-01T09:13:02.321Z,95.69
2018-04-01T09:13:14.905Z,96.07
2018-04-01T09:13:27.493Z,96.26
2018-04-01T09:13:40.084Z,96.45
2018-04-01T09:13:52.674Z,95.98
2018-04-01T09:14:05.347Z,95.79
2018-04-01T09:14:17.921Z,95.22
2018-04-01T09:14:30.510Z,95.60
2018-04-01T09:14:43.123Z,95.60
2018-04-01T09:14:55.737Z,95.60
2018-04-01T09:15:08.332Z,95.69
2018-04-01T09:15:20.999Z,95.31
2018-04-01T09:15:33.611Z,95.12
2018-04-01T09:15:46.206Z,94.84
2018-04-01T09:15:58.820Z,94.93
2018-04-01T09:16:11.405Z,95.12
2018-04-01T09:16:24.001Z,95.31
2018-04-01T09:16:36.614Z,95.03
2018-04-01T09:16:49.202Z,95.69
2018-04-01T09:17:01.829Z,95.41
2018-04-01T09:17:14.404Z,95.79
2018-04-01T09:17:27.020Z,96.07
2018-04-01T09:17:39.616Z,95.41
2018-04-01T09:17:52.200Z,95.50
2018-04-01T09:18:04.789Z,95.41
2018-04-01T09:18:17.389Z,95.88
2018-04-01T09:18:29.998Z,95.31
2018-04-01T09:18:42.592Z,95.69
2018-04-01T09:18:55.203Z,95.79
2018-04-01T09:19:07.805Z,95.31
2018-04-01T09:19:20.389Z,95.50
2018-04-01T09:19:32.979Z,96.07
2018-04-01T09:19:45.590Z,96.26
2018-04-01T09:19:58.185Z,95.98
2018-04-01T09:20:10.797Z,96.07
2018-04-01T09:20:23.390Z,96.26
2018-04-01T09:20:36.004Z,96.45
2018-04-01T09:20:48.594Z,96.36
2018-04-01T09:21:01.208Z,96.45
2018-04-01T09:21:13.831Z,96.07
2018-04-01T09:21:26.419Z,96.17
2018-04-01T09:21:39.018Z,96.17
2018-04-01T09:21:51.633Z,96.26
2018-04-01T09:22:04.294Z,96.45
2018-04-01T09:22:16.894Z,96.36
2018-04-01T09:22:29.478Z,95.79
2018-04-01T09:22:42.065Z,96.45
2018-04-01T09:22:54.662Z,96.55
2018-04-01T09:23:07.283Z,96.26
2018-04-01T09:23:19.863Z,96.26
2018-04-01T09:23:32.457Z,96.26
2018-04-01T09:23:45.105Z,96.07
2018-04-01T09:23:57.722Z,95.69
2018-04-01T09:24:10.367Z,96.26
2018-04-01T09:24:22.955Z,96.07
2018-04-01T09:24:35.561Z,95.31
2018-04-01T09:24:48.159Z,95.69
2018-04-01T09:25:00.795Z,95.69
2018-04-01T09:25:13.367Z,95.69
2018-04-01T09:25:25.957Z,95.69
2018-04-01T09:25:38.585Z,95.22
2018-04-01T09:25:51.191Z,95.60
2018-04-01T09:26:03.806Z,95.60
2018-04-01T09:26:16.423Z,95.31
2018-04-01T09:26:29.041Z,95.22
2018-04-01T09:26:41.628Z,95.41
2018-04-01T09:26:54.221Z,95.41
2018-04-01T09:27:06.814Z,95.98
2018-04-01T09:27:19.403Z,95.79
2018-04-01T09:27:32.022Z,95.60
2018-04-01T09:27:44.588Z,95.31
2018-04-01T09:27:57.235Z,95.60
2018-04-01T09:28:09.898Z,96.26
2018-04-01T09:28:22.534Z,96.26
2018-04-01T09:28:35.148Z,95.88
2018-04-01T09:28:47.742Z,95.98
2018-04-01T09:29:00.356Z,95.50
2018-04-01T09:29:12.952Z,95.60
2018-04-01T09:29:25.607Z,95.41
2018-04-01T09:29:38.161Z,95.69
2018-04-01T09:29:50.752Z,95.50
2018-04-01T09:30:03.336Z,95.31
2018-04-01T09:30:15.930Z,95.50
2018-04-01T09:30:28.543Z,95.98
2018-04-01T09:30:41.136Z,96.17
2018-04-01T09:30:53.780Z,96.17
2018-04-01T09:31:06.420Z,95.79
2018-04-01T09:31:19.015Z,95.79
2018-04-01T09:31:31.635Z,96.36
2018-04-01T09:31:44.260Z,96.07
2018-04-01T09:31:56.849Z,95.60
2018-04-01T09:32:09.468Z,95.31
2018-04-01T09:32:22.081Z,95.50
2018-04-01T09:32:34.696Z,95.31
2018-04-01T09:32:47.307Z,95.22
2018-04-01T09:32:59.894Z,94.84
2018-04-01T09:33:12.486Z,94.84
2018-04-01T09:33:25.081Z,95.22
2018-04-01T09:33:37.694Z,94.93
2018-04-01T09:33:50.359Z,95.03
2018-04-01T09:34:02.972Z,94.46
2018-04-01T09:34:15.563Z,94.18
2018-04-01T09:34:28.157Z,94.46
2018-04-01T09:34:40.756Z,94.84
2018-04-01T09:34:53.346Z,94.65
2018-04-01T09:35:05.959Z,93.80
2018-04-01T09:35:18.607Z,93.80
2018-04-01T09:35:31.280Z,94.08
2018-04-01T09:35:43.952Z,94.18
2018-04-01T09:35:56.564Z,94.18
2018-04-01T09:36:09.190Z,94.65
2018-04-01T09:36:21.799Z,94.56
2018-04-01T09:36:34.394Z,94.65
2018-04-01T09:36:47.048Z,94.18
2018-04-01T09:36:59.670Z,94.27
2018-04-01T09:37:12.232Z,94.27
2018-04-01T09:37:24.823Z,94.18
2018-04-01T09:37:37.465Z,94.65
2018-04-01T09:37:50.081Z,95.03
2018-04-01T09:38:02.673Z,94.93
2018-04-01T09:38:15.262Z,94.74
2018-04-01T09:38:27.851Z,95.03
2018-04-01T09:38:40.445Z,94.93
2018-04-01T09:38:53.094Z,94.74
2018-04-01T09:39:05.696Z,94.84
2018-04-01T09:39:18.371Z,94.93
2018-04-01T09:39:31.046Z,95.22
2018-04-01T09:39:43.698Z,95.31
2018-04-01T09:39:56.319Z,95.31
2018-04-01T09:40:08.976Z,95.03
2018-04-01T09:40:21.546Z,95.22
2018-04-01T09:40:34.143Z,95.12
2018-04-01T09:40:46.741Z,94.74
2018-04-01T09:40:59.421Z,94.93
2018-04-01T09:41:12.032Z,95.22
2018-04-01T09:41:24.633Z,94.74
2018-04-01T09:41:37.246Z,95.12
2018-04-01T09:41:49.879Z,94.65
2018-04-01T09:42:02.467Z,95.31
2018-04-01T09:42:15.088Z,95.03
2018-04-01T09:42:27.701Z,95.12
2018-04-01T09:42:40.312Z,95.22
2018-04-01T09:42:52.906Z,95.12
2018-04-01T09:43:05.524Z,95.12
2018-04-01T09:43:18.161Z,95.12
2018-04-01T09:43:30.817Z,95.03
2018-04-01T09:43:43.441Z,94.93
2018-04-01T09:43:56.047Z,95.79
2018-04-01T09:44:08.635Z,95.60
2018-04-01T09:44:21.278Z,95.50
2018-04-01T09:44:33.898Z,95.41
2018-04-01T09:44:46.547Z,95.69
2018-04-01T09:44:59.182Z,95.79
2018-04-01T09:45:11.797Z,95.69
2018-04-01T09:45:24.384Z,95.50
2018-04-01T09:45:36.976Z,95.69
2018-04-01T09:45:49.636Z,95.60
2018-04-01T09:46:02.256Z,96.02
2018-04-01T09:46:14.843Z,96.21
2018-04-01T09:46:27.436Z,96.21
2018-04-01T09:46:40.023Z,96.45
2018-04-01T09:46:52.611Z,96.21
2018-04-01T09:47:05.197Z,96.45
2018-04-01T09:47:17.822Z,96.55
2018-04-01T09:47:30.458Z,96.64
2018-04-01T09:47:43.075Z,96.21
2018-04-01T09:47:55.690Z,96.21
2018-04-01T09:48:08.323Z,96.07
2018-04-01T09:48:20.915Z,95.98
2018-04-01T09:48:33.504Z,95.88
2018-04-01T09:48:46.133Z,95.98
2018-04-01T09:48:58.775Z,95.50
2018-04-01T09:49:11.427Z,95.60
2018-04-01T09:49:24.088Z,95.69
2018-04-01T09:49:36.662Z,95.69
2018-04-01T09:49:49.252Z,95.12
2018-04-01T09:50:01.847Z,95.12
2018-04-01T09:50:14.438Z,95.07
2018-04-01T09:50:27.032Z,95.12
2018-04-01T09:50:39.647Z,94.98
2018-04-01T09:50:52.249Z,95.03
2018-04-01T09:51:04.828Z,95.69
2018-04-01T09:51:17.439Z,95.55
2018-04-01T09:51:30.026Z,95.69
2018-04-01T09:51:42.675Z,95.60
2018-04-01T09:51:55.317Z,95.22
2018-04-01T09:52:07.936Z,94.93
2018-04-01T09:52:20.553Z,95.17
2018-04-01T09:52:33.166Z,95.64
2018-04-01T09:52:45.766Z,95.64
2018-04-01T09:52:58.378Z,95.36
2018-04-01T09:53:10.995Z,95.55
2018-04-01T09:53:23.608Z,95.60
2018-04-01T09:53:36.202Z,96.02
2018-04-01T09:53:48.798Z,95.83
2018-04-01T09:54:01.416Z,96.02
2018-04-01T09:54:14.070Z,96.31
2018-04-01T09:54:26.732Z,96.26
2018-04-01T09:54:40.184Z,96.36
2018-04-01T09:54:52.125Z,95.98
2018-04-01T09:55:04.743Z,95.93
2018-04-01T09:55:17.348Z,96.26
2018-04-01T09:55:29.936Z,96.36
2018-04-01T09:55:42.559Z,95.98
2018-04-01T09:55:55.144Z,95.88
2018-04-01T09:56:07.742Z,95.79
2018-04-01T09:56:20.330Z,95.88
2018-04-01T09:56:32.946Z,95.88
2018-04-01T09:56:45.554Z,95.50
2018-04-01T09:56:58.219Z,95.41
2018-04-01T09:57:10.829Z,95.41
2018-04-01T09:57:23.480Z,95.60
2018-04-01T09:57:36.141Z,95.41
2018-04-01T09:57:48.775Z,95.12
2018-04-01T09:58:01.349Z,95.12
2018-04-01T09:58:13.980Z,95.31
2018-04-01T09:58:26.603Z,95.22
2018-04-01T09:58:39.191Z,95.22
2018-04-01T09:58:51.784Z,95.12
2018-04-01T09:59:04.394Z,95.12
2018-04-01T09:59:16.981Z,95.31
2018-04-01T09:59:29.577Z,95.22
2018-04-01T09:59:42.178Z,94.84
2018-04-01T09:59:54.792Z,94.84
2018-04-01T10:00:07.402Z,94.93
2018-04-01T10:00:19.997Z,95.03
2018-04-01T10:00:32.610Z,94.84
2018-04-01T10:00:45.198Z,94.46
2018-04-01T10:00:57.794Z,94.56
2018-04-01T10:01:10.412Z,94.27
2018-04-01T10:01:23.028Z,94.08
2018-04-01T10:01:35.618Z,94.56
2018-04-01T10:01:48.284Z,94.37
2018-04-01T10:02:00.902Z,94.84
2018-04-01T10:02:13.511Z,93.89
2018-04-01T10:02:26.203Z,94.56
2018-04-01T10:02:38.827Z,94.46
2018-04-01T10:02:51.421Z,94.56
2018-04-01T10:03:04.012Z,94.18
2018-04-01T10:03:16.602Z,94.46
2018-04-01T10:03:29.200Z,94.27
2018-04-01T10:03:41.862Z,94.93
2018-04-01T10:03:54.471Z,94.93
2018-04-01T10:04:07.084Z,94.65
2018-04-01T10:04:19.719Z,94.84
2018-04-01T10:04:32.327Z,94.74
2018-04-01T10:04:44.897Z,95.03
2018-04-01T10:04:57.518Z,94.46
2018-04-01T10:05:10.134Z,94.18
2018-04-01T10:05:22.755Z,94.37
2018-04-01T10:05:35.370Z,94.18
2018-04-01T10:05:47.965Z,94.46
2018-04-01T10:06:00.648Z,94.27
2018-04-01T10:06:13.303Z,94.27
2018-04-01T10:06:25.896Z,94.18
2018-04-01T10:06:38.518Z,94.37
2018-04-01T10:06:51.326Z,94.37
2018-04-01T10:07:03.976Z,94.46
2018-04-01T10:07:16.630Z,94.18
2018-04-01T10:07:29.236Z,94.18
2018-04-01T10:07:41.888Z,94.27
2018-04-01T10:07:54.506Z,94.18
2018-04-01T10:08:07.125Z,94.46
2018-04-01T10:08:19.740Z,94.46
2018-04-01T10:08:32.407Z,95.03
2018-04-01T10:08:45.047Z,95.12
2018-04-01T10:08:57.630Z,95.03
2018-04-01T10:09:10.243Z,94.65
2018-04-01T10:09:22.830Z,94.65
2018-04-01T10:09:35.425Z,94.18
2018-04-01T10:09:48.034Z,93.99
2018-04-01T10:10:00.634Z,94.65
2018-04-01T10:10:13.248Z,94.84
2018-04-01T10:10:25.837Z,94.56
2018-04-01T10:10:38.428Z,94.84
2018-04-01T10:10:51.044Z,94.84
2018-04-01T10:11:03.656Z,94.84
2018-04-01T10:11:16.293Z,94.93
2018-04-01T10:11:28.920Z,95.03
2018-04-01T10:11:41.530Z,94.98
2018-04-01T10:11:54.125Z,94.93
2018-04-01T10:12:06.740Z,95.03
2018-04-01T10:12:19.325Z,95.12
2018-04-01T10:12:31.967Z,95.41
2018-04-01T10:12:44.561Z,95.64
2018-04-01T10:12:57.171Z,95.69
2018-04-01T10:13:09.810Z,95.60
2018-04-01T10:13:22.395Z,95.69
2018-04-01T10:13:35.001Z,95.69
2018-04-01T10:13:47.612Z,95.31
2018-04-01T10:14:00.204Z,95.50
2018-04-01T10:14:12.794Z,95.69
2018-04-01T10:14:25.387Z,95.31
2018-04-01T10:14:37.976Z,95.31
2018-04-01T10:14:50.567Z,95.31
2018-04-01T10:15:03.157Z,95.41
2018-04-01T10:15:15.744Z,95.98
2018-04-01T10:15:28.335Z,95.79
2018-04-01T10:15:40.925Z,96.26
2018-04-01T10:15:53.514Z,96.36
2018-04-01T10:16:06.105Z,95.98
2018-04-01T10:16:18.719Z,95.88
2018-04-01T10:16:31.419Z,95.98
2018-04-01T10:16:44.037Z,96.36
2018-04-01T10:16:56.628Z,96.07
2018-04-01T10:17:09.287Z,96.07
2018-04-01T10:17:21.923Z,95.88
2018-04-01T10:17:34.526Z,96.07
2018-04-01T10:17:47.117Z,95.88
2018-04-01T10:17:59.710Z,96.07
2018-04-01T10:18:12.351Z,95.88
2018-04-01T10:18:24.946Z,95.41
2018-04-01T10:18:37.542Z,95.41
2018-04-01T10:18:50.146Z,95.12
2018-04-01T10:19:02.739Z,94.74
2018-04-01T10:19:15.403Z,95.22
2018-04-01T10:19:28.067Z,95.03
2018-04-01T10:19:40.659Z,94.74
2018-04-01T10:19:53.252Z,94.18
2018-04-01T10:20:05.894Z,94.56
2018-04-01T10:20:18.480Z,93.99
2018-04-01T10:20:31.073Z,94.08
2018-04-01T10:20:43.663Z,93.70
2018-04-01T10:20:56.297Z,93.80
2018-04-01T10:21:08.906Z,93.70
2018-04-01T10:21:21.515Z,93.99
2018-04-01T10:21:34.137Z,93.61
2018-04-01T10:21:46.750Z,94.08
2018-04-01T10:21:59.393Z,93.89
2018-04-01T10:22:12.006Z,93.99
2018-04-01T10:22:24.618Z,93.61
2018-04-01T10:22:37.214Z,93.51
2018-04-01T10:22:49.826Z,93.32
2018-04-01T10:23:02.415Z,92.85
2018-04-01T10:23:15.058Z,92.85
2018-04-01T10:23:27.648Z,93.23
2018-04-01T10:23:40.290Z,93.23
2018-04-01T10:23:52.881Z,93.23
2018-04-01T10:24:05.470Z,93.13
2018-04-01T10:24:18.063Z,92.85
2018-04-01T10:24:30.692Z,93.32
2018-04-01T10:24:43.293Z,93.23
2018-04-01T10:24:55.915Z,92.94
2018-04-01T10:25:08.552Z,93.04
2018-04-01T10:25:21.158Z,93.04
2018-04-01T10:25:33.752Z,92.76
2018-04-01T10:25:46.380Z,92.38
2018-04-01T10:25:58.994Z,92.76
2018-04-01T10:26:11.589Z,92.76
2018-04-01T10:26:24.189Z,92.66
2018-04-01T10:26:36.905Z,92.57
2018-04-01T10:26:49.516Z,92.76
2018-04-01T10:27:02.107Z,92.66
2018-04-01T10:27:14.801Z,92.66
2018-04-01T10:27:27.370Z,92.66
2018-04-01T10:27:39.964Z,92.66
2018-04-01T10:27:52.555Z,93.13
2018-04-01T10:28:05.152Z,92.94
2018-04-01T10:28:17.736Z,93.23
2018-04-01T10:28:30.376Z,92.94
2018-04-01T10:28:42.969Z,93.51
2018-04-01T10:28:55.609Z,93.04
2018-04-01T10:29:08.222Z,93.04
2018-04-01T10:29:20.810Z,92.76
2018-04-01T10:29:33.401Z,93.13
2018-04-01T10:29:45.996Z,93.04
2018-04-01T10:29:58.607Z,93.04
2018-04-01T10:30:11.253Z,93.32
2018-04-01T10:30:23.864Z,93.13
2018-04-01T10:30:36.451Z,93.13
2018-04-01T10:30:49.048Z,93.23
2018-04-01T10:31:01.663Z,93.32
2018-04-01T10:31:14.276Z,93.23
2018-04-01T10:31:26.863Z,93.13
2018-04-01T10:31:39.460Z,92.94
2018-04-01T10:31:52.049Z,92.76
2018-04-01T10:32:04.639Z,92.76
2018-04-01T10:32:17.226Z,93.04
2018-04-01T10:32:29.819Z,93.32
2018-04-01T10:32:42.412Z,93.65
2018-04-01T10:32:54.997Z,93.56
2018-04-01T10:33:07.590Z,93.99
2018-04-01T10:33:20.254Z,93.61
2018-04-01T10:33:32.848Z,93.99
2018-04-01T10:33:45.439Z,93.89
2018-04-01T10:33:58.089Z,93.89
2018-04-01T10:34:10.707Z,94.27
2018-04-01T10:34:23.320Z,93.99
2018-04-01T10:34:35.939Z,94.27
2018-04-01T10:34:48.558Z,93.89
2018-04-01T10:35:01.180Z,94.08
2018-04-01T10:35:13.787Z,93.89
2018-04-01T10:35:26.407Z,93.80
2018-04-01T10:35:38.995Z,93.89
2018-04-01T10:35:51.640Z,93.70
2018-04-01T10:36:04.197Z,93.61
2018-04-01T10:36:16.816Z,94.08
2018-04-01T10:36:29.425Z,94.08
2018-04-01T10:36:42.045Z,93.99
2018-04-01T10:36:54.656Z,93.99
2018-04-01T10:37:07.296Z,93.80
2018-04-01T10:37:19.883Z,93.99
2018-04-01T10:37:32.478Z,93.89
2018-04-01T10:37:45.090Z,93.70
2018-04-01T10:37:57.691Z,93.80
2018-04-01T10:38:10.300Z,93.89
2018-04-01T10:38:22.915Z,93.99
2018-04-01T10:38:35.506Z,93.80
2018-04-01T10:38:48.120Z,93.70
2018-04-01T10:39:00.734Z,93.80
2018-04-01T10:39:13.329Z,93.70
2018-04-01T10:39:25.955Z,93.89
2018-04-01T10:39:38.565Z,93.80
2018-04-01T10:39:51.234Z,93.61
2018-04-01T10:40:03.841Z,93.61
2018-04-01T10:40:16.435Z,93.99
2018-04-01T10:40:29.023Z,94.08
2018-04-01T10:40:41.618Z,94.08
2018-04-01T10:40:54.216Z,93.80
2018-04-01T10:41:06.845Z,93.89
2018-04-01T10:41:19.456Z,93.61
2018-04-01T10:41:32.046Z,93.89
2018-04-01T10:41:44.638Z,93.51
2018-04-01T10:41:57.230Z,93.61
2018-04-01T10:42:09.821Z,93.89
2018-04-01T10:42:22.445Z,94.65
2018-04-01T10:42:35.029Z,93.89
2018-04-01T10:42:47.623Z,93.80
2018-04-01T10:43:00.231Z,94.08
2018-04-01T10:43:12.835Z,93.51
2018-04-01T10:43:25.422Z,93.70
2018-04-01T10:43:38.007Z,93.80
2018-04-01T10:43:50.650Z,93.80
2018-04-01T10:44:03.279Z,93.80
2018-04-01T10:44:15.894Z,93.51
2018-04-01T10:44:28.486Z,94.27
2018-04-01T10:44:41.097Z,94.08